createdAt,value
2023-11-02T00:01:54.321Z,98580.75
2023-11-02T00:04:58.005Z,98572.59
2023-11-02T00:07:59.800Z,98575.63
2023-11-02T00:11:03.807Z,98566.25
2023-11-02T00:14:05.531Z,98551.81
2023-11-02T00:17:37.562Z,98544.03
2023-11-02T00:20:41.381Z,98529.13
2023-11-02T00:23:45.051Z,98525.03
2023-11-02T00:26:46.802Z,98517.69
2023-11-02T00:29:49.182Z,98519.22
2023-11-02T00:32:50.869Z,98506.97
2023-11-02T00:35:55.031Z,98500.50
2023-11-02T00:38:58.389Z,98483.66
2023-11-02T00:42:00.487Z,98481.25
2023-11-02T00:45:02.876Z,98488.25
2023-11-02T00:48:17.074Z,98473.09
2023-11-02T00:51:28.530Z,98454.38
2023-11-02T00:54:55.825Z,98435.72
2023-11-02T00:58:04.474Z,98430.06
2023-11-02T01:01:11.911Z,98426.28
2023-11-02T01:04:48.689Z,98411.41
2023-11-02T01:07:51.681Z,98398.53
2023-11-02T01:10:53.440Z,98393.53
2023-11-02T01:13:57.216Z,98388.38
2023-11-02T01:16:58.974Z,98366.25
2023-11-02T01:20:09.488Z,98370.97
2023-11-02T01:23:16.761Z,98356.81
2023-11-02T01:26:48.989Z,98356.09
2023-11-02T01:29:51.209Z,98351.75
2023-11-02T01:32:53.073Z,98340.06
2023-11-02T01:35:56.522Z,98324.94
2023-11-02T01:39:03.057Z,98313.16
2023-11-02T01:42:10.070Z,98291.00
2023-11-02T01:45:16.299Z,98288.09
2023-11-02T01:48:20.369Z,98273.06
2023-11-02T01:51:28.266Z,98275.84
2023-11-02T01:54:44.389Z,98275.78
2023-11-02T01:57:55.305Z,98258.38
2023-11-02T02:01:01.212Z,98263.84
2023-11-02T02:04:09.018Z,98246.00
2023-11-02T02:07:20.043Z,98240.38
2023-11-02T02:10:27.493Z,98228.13
2023-11-02T02:13:39.237Z,98212.59
2023-11-02T02:16:47.652Z,98193.88
2023-11-02T02:20:03.637Z,98182.25
2023-11-02T02:23:13.052Z,98171.28
2023-11-02T02:26:37.205Z,98173.22
2023-11-02T02:30:01.897Z,98174.78
2023-11-02T02:33:20.725Z,98173.41
2023-11-02T02:36:34.738Z,98172.75
2023-11-02T02:39:42.278Z,98151.72
2023-11-02T02:42:48.585Z,98152.94
2023-11-02T02:45:51.672Z,98155.22
2023-11-02T02:48:53.474Z,98144.91
2023-11-02T02:51:58.668Z,98143.53
2023-11-02T02:55:02.656Z,98127.47
2023-11-02T02:58:09.883Z,98126.81
2023-11-02T03:01:14.381Z,98121.16
2023-11-02T03:04:19.258Z,98106.69
2023-11-02T03:07:24.115Z,98084.56
2023-11-02T03:10:26.231Z,98104.88
2023-11-02T03:13:29.737Z,98103.63
2023-11-02T03:16:36.270Z,98107.09
2023-11-02T03:19:48.617Z,98097.31
2023-11-02T03:22:51.758Z,98078.22
2023-11-02T03:26:03.583Z,98074.47
2023-11-02T03:29:21.363Z,98072.09
2023-11-02T03:32:30.116Z,98058.13
2023-11-02T03:35:38.806Z,98057.78
2023-11-02T03:39:02.278Z,98049.22
2023-11-02T03:42:10.680Z,98039.38
2023-11-02T03:45:27.698Z,98031.47
2023-11-02T03:48:35.452Z,98020.06
2023-11-02T03:51:46.170Z,97992.38
2023-11-02T03:55:05.386Z,97981.00
2023-11-02T03:58:21.874Z,97988.91
2023-11-02T04:01:36.105Z,97985.13
2023-11-02T04:04:41.190Z,97966.66
2023-11-02T04:07:54.731Z,97950.78
2023-11-02T04:11:04.121Z,97929.09
2023-11-02T04:14:17.032Z,97929.13
2023-11-02T04:17:19.447Z,97929.53
2023-11-02T04:20:21.122Z,97939.88
2023-11-02T04:23:23.815Z,97936.28
2023-11-02T04:26:27.633Z,97931.25
2023-11-02T04:29:31.210Z,97904.31
2023-11-02T04:32:33.018Z,97884.00
2023-11-02T04:35:35.882Z,97878.19
2023-11-02T04:38:37.790Z,97883.00
2023-11-02T04:41:40.854Z,97861.19
2023-11-02T04:44:43.481Z,97853.81
2023-11-02T04:47:45.218Z,97850.34
2023-11-02T04:50:48.446Z,97822.91
2023-11-02T04:53:51.230Z,97827.19
2023-11-02T04:56:54.308Z,97811.53
2023-11-02T04:59:55.993Z,97815.97
2023-11-02T05:02:57.891Z,97813.28
2023-11-02T05:05:59.716Z,97830.47
2023-11-02T05:09:03.434Z,97834.28
2023-11-02T05:12:07.061Z,97834.19
2023-11-02T05:15:11.473Z,97830.31
2023-11-02T05:18:13.369Z,97818.81
2023-11-02T05:21:15.122Z,97822.50
2023-11-02T05:24:17.040Z,97829.50
2023-11-02T05:27:20.363Z,97812.44
2023-11-02T05:30:22.206Z,97815.19
2023-11-02T05:33:24.042Z,97822.56
2023-11-02T05:36:26.599Z,97816.31
2023-11-02T05:39:28.457Z,97813.34
2023-11-02T05:42:31.629Z,97799.41
2023-11-02T05:45:33.470Z,97790.16
2023-11-02T05:48:35.241Z,97777.13
2023-11-02T05:51:37.118Z,97793.59
2023-11-02T05:54:38.939Z,97764.09
2023-11-02T05:57:42.314Z,97786.63
2023-11-02T06:00:44.078Z,97776.91
2023-11-02T06:03:47.611Z,97787.19
2023-11-02T06:06:49.598Z,97798.44
2023-11-02T06:09:51.542Z,97789.44
2023-11-02T06:12:55.127Z,97776.31
2023-11-02T06:15:56.901Z,97790.53
2023-11-02T06:18:58.589Z,97780.69
2023-11-02T06:22:00.398Z,97786.75
2023-11-02T06:25:02.143Z,97784.03
2023-11-02T06:28:05.881Z,97758.66
2023-11-02T06:31:07.517Z,97765.22
2023-11-02T06:34:09.703Z,97759.06
2023-11-02T06:37:14.381Z,97778.44
2023-11-02T06:40:16.219Z,97777.34
2023-11-02T06:43:19.302Z,97756.63
2023-11-02T06:46:20.978Z,97761.59
2023-11-02T06:49:22.974Z,97739.88
2023-11-02T06:52:24.682Z,97728.88
2023-11-02T06:55:26.693Z,97734.56
2023-11-02T06:58:30.300Z,97734.50
2023-11-02T07:01:32.298Z,97727.78
2023-11-02T07:04:34.080Z,97726.34
2023-11-02T07:07:39.624Z,97709.56
2023-11-02T07:10:42.297Z,97704.41
2023-11-02T07:13:45.352Z,97700.13
2023-11-02T07:16:47.191Z,97712.03
2023-11-02T07:19:48.946Z,97708.66
2023-11-02T07:22:50.690Z,97703.75
2023-11-02T07:25:52.911Z,97710.22
2023-11-02T07:28:58.321Z,97703.66
2023-11-02T07:32:00.279Z,97675.31
2023-11-02T07:35:02.599Z,97625.16
2023-11-02T07:38:04.327Z,97576.06
2023-11-02T07:41:07.221Z,97496.81
2023-11-02T07:44:10.366Z,97466.78
2023-11-02T07:47:12.042Z,97459.03
2023-11-02T07:50:14.345Z,97499.00
2023-11-02T07:53:16.198Z,97528.59
2023-11-02T07:56:18.024Z,97548.22
2023-11-02T07:59:21.145Z,97581.97
2023-11-02T08:02:22.962Z,97608.19
2023-11-02T08:05:24.684Z,97601.25
2023-11-02T08:08:26.459Z,97587.78
2023-11-02T08:11:28.356Z,97596.78
2023-11-02T08:14:31.356Z,97542.38
2023-11-02T08:17:33.269Z,97517.38
2023-11-02T08:20:35.089Z,97516.50
2023-11-02T08:23:36.805Z,97489.63
2023-11-02T08:26:38.835Z,97468.50
2023-11-02T08:29:42.115Z,97469.38
2023-11-02T08:32:44.440Z,97437.88
2023-11-02T08:35:46.117Z,97416.91
2023-11-02T08:38:47.957Z,97428.53
2023-11-02T08:41:49.686Z,97397.03
2023-11-02T08:44:52.657Z,97369.38
2023-11-02T08:47:54.477Z,97370.22
2023-11-02T08:50:56.324Z,97373.94
2023-11-02T08:53:58.310Z,97350.19
2023-11-02T08:57:00.046Z,97353.69
2023-11-02T09:00:06.179Z,97319.63
2023-11-02T09:03:08.001Z,97313.34
2023-11-02T09:06:10.828Z,97316.50
2023-11-02T09:09:12.729Z,97365.13
2023-11-02T09:12:14.708Z,97364.75
2023-11-02T09:15:17.918Z,97377.38
2023-11-02T09:18:19.971Z,97336.88
2023-11-02T09:21:22.098Z,97284.66
2023-11-02T09:24:23.833Z,97373.91
2023-11-02T09:27:25.618Z,97384.59
2023-11-02T09:30:28.839Z,97378.66
2023-11-02T09:33:30.944Z,97407.34
2023-11-02T09:36:32.861Z,97358.25
2023-11-02T09:39:34.643Z,97322.75
2023-11-02T09:42:36.450Z,97306.06
2023-11-02T09:45:39.651Z,97322.66
2023-11-02T09:48:42.384Z,97367.31
2023-11-02T09:51:44.803Z,97416.13
2023-11-02T09:54:49.048Z,97403.09
2023-11-02T09:57:51.922Z,97409.94
2023-11-02T10:00:56.180Z,97398.69
2023-11-02T10:03:58.120Z,97412.66
2023-11-02T10:06:59.887Z,97394.38
2023-11-02T10:10:01.813Z,97411.19
2023-11-02T10:13:03.629Z,97417.19
2023-11-02T10:16:07.610Z,97418.63
2023-11-02T10:19:09.808Z,97420.19
2023-11-02T10:22:11.559Z,97433.31
2023-11-02T10:25:14.863Z,97429.84
2023-11-02T10:28:16.561Z,97434.00
2023-11-02T10:31:23.364Z,97456.63
2023-11-02T10:34:27.116Z,97457.59
2023-11-02T10:37:30.939Z,97472.44
2023-11-02T10:40:43.024Z,97498.81
2023-11-02T10:43:46.306Z,97467.91
2023-11-02T10:46:51.009Z,97454.47
2023-11-02T10:49:53.950Z,97425.91
2023-11-02T10:52:59.134Z,97409.50
2023-11-02T10:56:05.199Z,97383.97
2023-11-02T10:59:08.862Z,97396.31
2023-11-02T11:02:15.064Z,97421.84
2023-11-02T11:05:18.728Z,97420.13
2023-11-02T11:08:20.726Z,97448.47
2023-11-02T11:11:23.233Z,97470.34
2023-11-02T11:14:26.863Z,97486.16
2023-11-02T11:17:30.802Z,97509.69
2023-11-02T11:20:32.768Z,97522.63
2023-11-02T11:23:37.900Z,97500.59
2023-11-02T11:26:47.486Z,97477.97
2023-11-02T11:29:51.890Z,97500.09
2023-11-02T11:32:55.436Z,97506.97
2023-11-02T11:36:19.868Z,97472.22
2023-11-02T11:39:35.778Z,97483.84
2023-11-02T11:43:02.733Z,97490.94
2023-11-02T11:46:05.970Z,97479.25
2023-11-02T11:49:45.454Z,97468.56
2023-11-02T11:52:47.704Z,97441.22
2023-11-02T11:55:50.957Z,97428.00
2023-11-02T11:58:52.797Z,97428.88
2023-11-02T12:02:28.032Z,97417.50
2023-11-02T12:05:48.387Z,97416.59
2023-11-02T12:08:52.120Z,97421.88
2023-11-02T12:11:53.921Z,97430.84
2023-11-02T12:14:55.648Z,97421.91
2023-11-02T12:17:58.270Z,97428.16
2023-11-02T12:21:01.971Z,97435.97
2023-11-02T12:24:08.797Z,97433.25
2023-11-02T12:27:11.997Z,97426.13
2023-11-02T12:30:14.088Z,97446.28
2023-11-02T12:33:22.813Z,97463.84
2023-11-02T12:36:24.987Z,97427.03
2023-11-02T12:39:28.890Z,97391.44
2023-11-02T12:42:30.648Z,97404.44
2023-11-02T12:45:33.201Z,97383.44
2023-11-02T12:48:38.344Z,97356.81
2023-11-02T12:51:40.273Z,97332.09
2023-11-02T12:54:57.100Z,97318.06
2023-11-02T12:57:59.048Z,97318.88
2023-11-02T13:01:01.657Z,97347.94
2023-11-02T13:04:05.275Z,97385.84
2023-11-02T13:07:20.954Z,97389.56
2023-11-02T13:10:24.980Z,97397.22
2023-11-02T13:13:27.831Z,97397.22
2023-11-02T13:16:29.647Z,97398.81
2023-11-02T13:19:31.890Z,97405.06
2023-11-02T13:22:33.823Z,97384.78
2023-11-02T13:25:37.425Z,97368.09
2023-11-02T13:28:40.440Z,97376.16
2023-11-02T13:31:42.619Z,97364.78
2023-11-02T13:34:44.582Z,97348.88
2023-11-02T13:37:47.351Z,97358.44
2023-11-02T13:40:50.405Z,97344.44
2023-11-02T13:43:52.170Z,97347.22
2023-11-02T13:46:54.011Z,97358.63
2023-11-02T13:49:57.783Z,97361.38
2023-11-02T13:52:59.536Z,97360.41
2023-11-02T13:56:04.998Z,97363.69
2023-11-02T13:59:06.668Z,97359.09
2023-11-02T14:02:08.715Z,97358.28
2023-11-02T14:05:12.257Z,97360.13
2023-11-02T14:08:14.613Z,97359.09
2023-11-02T14:11:18.000Z,97364.47
2023-11-02T14:14:19.790Z,97355.63
2023-11-02T14:17:24.565Z,97333.50
2023-11-02T14:20:27.671Z,97327.34
2023-11-02T14:23:29.639Z,97336.84
2023-11-02T14:26:32.691Z,97336.19
2023-11-02T14:29:34.401Z,97336.19
2023-11-02T14:32:36.792Z,97327.19
2023-11-02T14:35:38.877Z,97321.16
2023-11-02T14:38:40.658Z,97331.63
2023-11-02T14:41:44.130Z,97332.06
2023-11-02T14:44:46.232Z,97342.84
2023-11-02T14:47:52.038Z,97360.22
2023-11-02T14:50:54.113Z,97365.19
2023-11-02T14:53:56.316Z,97365.06
2023-11-02T14:56:59.916Z,97371.31
2023-11-02T15:00:01.615Z,97358.22
2023-11-02T15:03:03.430Z,97358.16
2023-11-02T15:06:05.620Z,97359.69
2023-11-02T15:09:10.674Z,97358.59
2023-11-02T15:12:14.707Z,97342.03
2023-11-02T15:15:16.647Z,97330.44
2023-11-02T15:18:18.781Z,97321.72
2023-11-02T15:21:21.365Z,97315.25
2023-11-02T15:24:23.098Z,97297.59
2023-11-02T15:27:29.848Z,97305.38
2023-11-02T15:30:32.385Z,97292.56
2023-11-02T15:33:34.198Z,97291.03
2023-11-02T15:36:38.284Z,97295.75
2023-11-02T15:39:40.770Z,97303.28
2023-11-02T15:42:45.625Z,97309.28
2023-11-02T15:45:47.369Z,97309.00
2023-11-02T15:48:51.447Z,97306.94
2023-11-02T15:51:53.778Z,97307.09
2023-11-02T15:54:59.553Z,97303.94
2023-11-02T15:58:02.949Z,97302.56
2023-11-02T16:01:05.196Z,97305.50
2023-11-02T16:04:09.371Z,97311.97
2023-11-02T16:07:11.868Z,97300.91
2023-11-02T16:10:15.033Z,97315.31
2023-11-02T16:13:18.299Z,97318.00
2023-11-02T16:16:20.029Z,97325.59
2023-11-02T16:19:21.751Z,97334.38
2023-11-02T16:22:24.371Z,97329.34
2023-11-02T16:25:26.556Z,97324.88
2023-11-02T16:28:29.790Z,97322.97
2023-11-02T16:31:31.725Z,97337.78
2023-11-02T16:34:39.584Z,97339.31
2023-11-02T16:37:45.474Z,97337.84
2023-11-02T16:40:47.473Z,97332.25
2023-11-02T16:43:50.540Z,97324.09
2023-11-02T16:46:52.273Z,97315.25
2023-11-02T16:49:54.045Z,97324.00
2023-11-02T16:52:55.997Z,97317.59
2023-11-02T16:56:00.365Z,97328.03
2023-11-02T16:59:05.762Z,97320.50
2023-11-02T17:02:10.385Z,97326.91
2023-11-02T17:05:12.100Z,97329.31
2023-11-02T17:08:13.796Z,97325.75
2023-11-02T17:11:16.358Z,97326.56
2023-11-02T17:14:19.426Z,97326.56
2023-11-02T17:17:21.064Z,97335.69
2023-11-02T17:20:23.180Z,97333.06
2023-11-02T17:23:24.924Z,97337.06
2023-11-02T17:26:26.911Z,97332.38
2023-11-02T17:29:30.162Z,97346.34
2023-11-02T17:32:32.205Z,97335.06
2023-11-02T17:35:34.453Z,97329.75
2023-11-02T17:38:37.217Z,97346.22
2023-11-02T17:41:39.288Z,97353.28
2023-11-02T17:44:42.320Z,97369.06
2023-11-02T17:47:44.021Z,97364.22
2023-11-02T17:50:46.100Z,97378.22
2023-11-02T17:55:12.163Z,97387.78
2023-11-02T17:58:14.061Z,97392.13
2023-11-02T18:01:16.305Z,97398.31
2023-11-02T18:04:18.416Z,97396.78
2023-11-02T18:07:20.199Z,97397.16
2023-11-02T18:10:23.456Z,97396.44
2023-11-02T18:13:25.090Z,97390.63
2023-11-02T18:16:26.769Z,97396.34
2023-11-02T18:19:30.371Z,97395.66
2023-11-02T18:22:32.155Z,97384.03
2023-11-02T18:25:38.720Z,97378.47
2023-11-02T18:28:40.769Z,97394.66
2023-11-02T18:31:42.655Z,97392.91
2023-11-02T18:34:44.431Z,97399.97
2023-11-02T18:37:48.504Z,97382.66
2023-11-02T18:40:52.673Z,97382.66
2023-11-02T18:43:54.646Z,97396.78
2023-11-02T18:46:56.665Z,97383.72
2023-11-02T18:49:58.718Z,97387.16
2023-11-02T18:53:00.990Z,97373.41
2023-11-02T18:56:05.184Z,97382.09
2023-11-02T18:59:07.429Z,97382.56
2023-11-02T19:02:09.120Z,97363.47
2023-11-02T19:05:12.683Z,97347.63
2023-11-02T19:08:19.650Z,97373.53
2023-11-02T19:11:22.737Z,97374.28
2023-11-02T19:14:24.437Z,97381.03
2023-11-02T19:17:28.194Z,97400.88
2023-11-02T19:20:29.875Z,97412.94
2023-11-02T19:23:31.891Z,97413.16
2023-11-02T19:26:35.003Z,97419.72
2023-11-02T19:29:38.503Z,97417.03
2023-11-02T19:32:40.213Z,97401.97
2023-11-02T19:35:42.882Z,97403.31
2023-11-02T19:38:44.576Z,97409.06
2023-11-02T19:41:49.620Z,97409.59
2023-11-02T19:44:51.691Z,97415.56
2023-11-02T19:47:53.444Z,97418.94
2023-11-02T19:50:56.517Z,97430.16
2023-11-02T19:53:59.087Z,97430.75
2023-11-02T19:57:02.186Z,97433.94
2023-11-02T20:00:04.827Z,97450.63
2023-11-02T20:03:13.893Z,97436.47
2023-11-02T20:06:15.740Z,97430.09
2023-11-02T20:09:17.743Z,97436.06
2023-11-02T20:12:20.948Z,97440.91
2023-11-02T20:15:22.658Z,97443.66
2023-11-02T20:18:24.886Z,97456.78
2023-11-02T20:21:26.769Z,97452.03
2023-11-02T20:24:28.588Z,97462.34
2023-11-02T20:27:32.029Z,97467.75
2023-11-02T20:30:33.795Z,97468.81
2023-11-02T20:33:35.878Z,97474.06
2023-11-02T20:36:37.883Z,97462.50
2023-11-02T20:39:39.709Z,97457.34
2023-11-02T20:42:42.943Z,97443.94
2023-11-02T20:45:44.753Z,97433.53
2023-11-02T20:48:46.590Z,97427.75
2023-11-02T20:51:48.602Z,97431.09
2023-11-02T20:54:50.462Z,97436.16
2023-11-02T20:57:53.821Z,97425.50
2023-11-02T21:00:56.299Z,97422.56
2023-11-02T21:03:58.906Z,97417.75
2023-11-02T21:07:00.847Z,97407.38
2023-11-02T21:10:02.733Z,97404.25
2023-11-02T21:13:05.918Z,97399.41
2023-11-02T21:16:09.325Z,97394.00
2023-11-02T21:19:12.955Z,97400.13
2023-11-02T21:22:14.725Z,97402.66
2023-11-02T21:25:16.622Z,97409.53
2023-11-02T21:28:19.772Z,97404.03
2023-11-02T21:31:21.573Z,97396.19
2023-11-02T21:34:23.395Z,97404.88
2023-11-02T21:37:25.225Z,97411.16
2023-11-02T21:40:27.040Z,97407.31
2023-11-02T21:43:31.576Z,97411.38
2023-11-02T21:46:34.157Z,97411.50
2023-11-02T21:49:36.046Z,97416.88
2023-11-02T21:52:37.863Z,97409.09
2023-11-02T21:55:40.059Z,97404.53
2023-11-02T21:58:43.212Z,97396.59
2023-11-02T22:01:44.993Z,97388.84
2023-11-02T22:04:46.794Z,97390.25
2023-11-02T22:07:48.511Z,97393.59
2023-11-02T22:10:50.224Z,97383.63
2023-11-02T22:13:53.325Z,97391.53
2023-11-02T22:16:55.023Z,97382.97
2023-11-02T22:19:56.696Z,97380.84
2023-11-02T22:22:58.777Z,97392.28
2023-11-02T22:26:00.579Z,97385.06
2023-11-02T22:29:03.958Z,97373.56
2023-11-02T22:32:07.876Z,97382.13
2023-11-02T22:35:10.092Z,97383.78
2023-11-02T22:38:13.087Z,97381.81
2023-11-02T22:41:14.978Z,97385.75
2023-11-02T22:44:18.035Z,97388.16
2023-11-02T22:47:19.762Z,97403.25
2023-11-02T22:50:21.574Z,97403.25
2023-11-02T22:53:23.403Z,97405.41
2023-11-02T22:56:25.115Z,97409.19
2023-11-02T22:59:28.213Z,97419.94
2023-11-02T23:02:30.121Z,97432.81
2023-11-02T23:05:32.031Z,97437.06
2023-11-02T23:08:34.184Z,97443.25
2023-11-02T23:11:36.125Z,97451.47
2023-11-02T23:14:39.325Z,97449.66
2023-11-02T23:17:41.356Z,97460.75
2023-11-02T23:20:44.580Z,97471.31
2023-11-02T23:23:46.619Z,97481.75
2023-11-02T23:26:48.515Z,97482.69
2023-11-02T23:29:51.803Z,97487.06
2023-11-02T23:32:54.622Z,97478.78
2023-11-02T23:35:56.652Z,97483.81
2023-11-02T23:38:59.128Z,97470.75
2023-11-02T23:42:00.971Z,97479.22
2023-11-02T23:45:04.879Z,97481.22
2023-11-02T23:48:07.792Z,97464.97
2023-11-02T23:51:09.707Z,97460.50
2023-11-02T23:54:11.709Z,97467.50
2023-11-02T23:57:13.548Z,97469.84
